Air Quality Table

TIMESTAMP NO2 SO2 O3 PM10 PM2.5 TEMP HUM AIRPRES WS WD NO
2022-08-20 00:00 0.41 µg/m3 0.23 µg/m3 100.46 µg/m3 N/A N/A 25.79 °C 74.43 % 999.56 mbar 10.4 m/s 266.98 Deg 0.1 µg/m3
2022-08-19 23:00 0.48 µg/m3 0.26 µg/m3 99.22 µg/m3 N/A N/A 25.99 °C 74.88 % 999.59 mbar 9.69 m/s 233.3 Deg 0.1 µg/m3
2022-08-19 22:00 0.37 µg/m3 0.26 µg/m3 100.14 µg/m3 N/A N/A 26.35 °C 71.31 % 999.48 mbar 10.24 m/s 208.01 Deg 0.11 µg/m3
2022-08-19 21:00 1.46 µg/m3 0.4 µg/m3 100.84 µg/m3 N/A N/A 26.52 °C 71 % 999.35 mbar 10.37 m/s 250.11 Deg 0.11 µg/m3
2022-08-19 20:00 2.79 µg/m3 0.51 µg/m3 101.73 µg/m3 N/A N/A 26.79 °C 70.3 % 998.57 mbar 10.53 m/s 178.55 Deg 0.12 µg/m3
2022-08-19 19:00 2.97 µg/m3 0.46 µg/m3 104.2 µg/m3 N/A N/A 26.98 °C 68.62 % 998.16 mbar 9.47 m/s 207.23 Deg 0.14 µg/m3
2022-08-19 18:00 1.44 µg/m3 0.39 µg/m3 107.85 µg/m3 N/A N/A 27.72 °C 61.66 % 997.89 mbar 9.09 m/s 211.73 Deg 0.17 µg/m3
2022-08-19 17:00 1.55 µg/m3 0.24 µg/m3 107.28 µg/m3 N/A N/A 27.81 °C 62.81 % 998.18 mbar 8.58 m/s 209.61 Deg 0.15 µg/m3
2022-08-19 16:00 1.18 µg/m3 0.19 µg/m3 106.7 µg/m3 N/A N/A 28.33 °C 67.31 % 998.05 mbar 8.97 m/s 232.22 Deg 0.22 µg/m3
2022-08-19 15:00 3.55 µg/m3 0.18 µg/m3 110.72 µg/m3 N/A N/A 28.82 °C 70.56 % 998.07 mbar 7.91 m/s 156.12 Deg 0.66 µg/m3
2022-08-19 14:00 1.31 µg/m3 0.16 µg/m3 115.18 µg/m3 N/A N/A 28.99 °C 73.88 % 998.49 mbar 7.54 m/s 260.39 Deg 0.29 µg/m3
2022-08-19 13:00 0.91 µg/m3 0.12 µg/m3 110.24 µg/m3 N/A N/A 28.84 °C 78.42 % 998.58 mbar 6.24 m/s 167.59 Deg 0.22 µg/m3
2022-08-19 12:00 1.9 µg/m3 0.14 µg/m3 109.11 µg/m3 N/A N/A 28.55 °C 79.59 % 998.64 mbar 4.84 m/s 184.71 Deg 0.29 µg/m3
2022-08-19 11:00 1.3 µg/m3 0.16 µg/m3 108.8 µg/m3 N/A N/A 28.23 °C 81.79 % 998.87 mbar 4.27 m/s 208.28 Deg 0.24 µg/m3
2022-08-19 10:00 1.29 µg/m3 0.19 µg/m3 104.26 µg/m3 N/A N/A 28.29 °C 80.36 % 998.72 mbar 5.58 m/s 284.43 Deg 0.26 µg/m3
2022-08-19 09:00 2.18 µg/m3 0.16 µg/m3 99.11 µg/m3 N/A N/A 27.71 °C 86.36 % 998.91 mbar 5.13 m/s 189.04 Deg 0.25 µg/m3
2022-08-19 08:00 2.66 µg/m3 0.15 µg/m3 96.35 µg/m3 N/A N/A 27.65 °C 88.84 % 998.34 mbar 4.19 m/s 258.3 Deg 0.76 µg/m3
2022-08-19 07:00 0.82 µg/m3 0.1 µg/m3 94.08 µg/m3 N/A N/A 27.53 °C 90.83 % 997.99 mbar 4.85 m/s 299.83 Deg 0.14 µg/m3
2022-08-19 06:00 0.84 µg/m3 0.13 µg/m3 81.46 µg/m3 N/A N/A 28.03 °C 87.63 % 997.80 mbar 3.9 m/s 200.7 Deg 0.11 µg/m3
2022-08-19 05:00 0.32 µg/m3 0.16 µg/m3 75.89 µg/m3 N/A N/A 28.16 °C 82.11 % 997.30 mbar 3.42 m/s 165.52 Deg 0.09 µg/m3
2022-08-19 04:00 0.6 µg/m3 0.17 µg/m3 67.78 µg/m3 N/A N/A 27.96 °C 83.38 % 997.08 mbar 3.57 m/s 108.8 Deg 0.1 µg/m3
2022-08-19 03:00 2.13 µg/m3 0.17 µg/m3 67.05 µg/m3 N/A N/A 27.95 °C 83.45 % 997.11 mbar 3.02 m/s 123.43 Deg 0.1 µg/m3
2022-08-19 02:00 1.25 µg/m3 0.12 µg/m3 67.41 µg/m3 N/A N/A 27.9 °C 86.11 % 997.49 mbar 2.08 m/s 144.38 Deg 0.09 µg/m3
2022-08-19 01:00 0.2 µg/m3 0.17 µg/m3 74.49 µg/m3 N/A N/A 28.23 °C 88.14 % 998.32 mbar 2.77 m/s 234.1 Deg 0.11 µg/m3
2022-08-19 00:00 -0.16 µg/m3 0.24 µg/m3 75.3 µg/m3 N/A N/A 29.12 °C 76.56 % 997.38 mbar 6.3 m/s 98.28 Deg 0.1 µg/m3
2022-08-18 23:00 0.05 µg/m3 0.26 µg/m3 76.91 µg/m3 N/A N/A 29.3 °C 75.63 % 996.77 mbar 7.45 m/s 66.99 Deg 0.09 µg/m3
2022-08-18 22:00 0.56 µg/m3 0.33 µg/m3 79.7 µg/m3 N/A N/A 30.24 °C 63.85 % 997.01 mbar 7.15 m/s 47.89 Deg 0.09 µg/m3
2022-08-18 21:00 0.58 µg/m3 0.36 µg/m3 81.55 µg/m3 N/A N/A 30.73 °C 56.53 % 996.67 mbar 8.37 m/s 98.05 Deg 0.08 µg/m3
2022-08-18 20:00 1.82 µg/m3 0.45 µg/m3 82.78 µg/m3 N/A N/A 31.44 °C 49.4 % 996.31 mbar 8.39 m/s 75.27 Deg 0.09 µg/m3
2022-08-18 19:00 3.46 µg/m3 0.55 µg/m3 83.27 µg/m3 N/A N/A 31.94 °C 45.84 % 996.35 mbar 7.63 m/s 86.54 Deg 0.15 µg/m3
2022-08-18 18:00 3.76 µg/m3 0.6 µg/m3 84.32 µg/m3 N/A N/A 31.83 °C 53.21 % 996.69 mbar 6.96 m/s 116.14 Deg 0.29 µg/m3
2022-08-18 17:00 3.2 µg/m3 0.65 µg/m3 85.23 µg/m3 N/A N/A 32.26 °C 53.7 % 997.12 mbar 7.11 m/s 71.16 Deg 0.45 µg/m3
2022-08-18 16:00 4.16 µg/m3 0.69 µg/m3 86.65 µg/m3 N/A N/A 32.71 °C 51.51 % 997.48 mbar 7.51 m/s 74.31 Deg 0.69 µg/m3
2022-08-18 15:00 1.44 µg/m3 0.63 µg/m3 87.63 µg/m3 N/A N/A 32.23 °C 52.22 % 997.98 mbar 7.02 m/s 114.27 Deg 0.26 µg/m3
2022-08-18 14:00 1.26 µg/m3 0.69 µg/m3 85.37 µg/m3 N/A N/A 32.23 °C 52.34 % 998.54 mbar 6.53 m/s 88.33 Deg 0.22 µg/m3
2022-08-18 13:00 1.48 µg/m3 0.69 µg/m3 83.71 µg/m3 N/A N/A 33.48 °C 45.57 % 998.75 mbar 7.26 m/s 63.88 Deg 0.3 µg/m3
2022-08-18 12:00 2.13 µg/m3 0.77 µg/m3 88.87 µg/m3 N/A N/A 34.18 °C 41.63 % 999.10 mbar 5.45 m/s 58.38 Deg 0.4 µg/m3
2022-08-18 11:00 2.19 µg/m3 0.67 µg/m3 89.6 µg/m3 N/A N/A 34.76 °C 34.65 % 999.53 mbar 4.03 m/s 78.07 Deg 0.36 µg/m3
2022-08-18 10:00 1.81 µg/m3 0.69 µg/m3 88.69 µg/m3 N/A N/A 33.67 °C 40.19 % 999.48 mbar 4.91 m/s 74.07 Deg 0.3 µg/m3
2022-08-18 09:00 1.84 µg/m3 0.47 µg/m3 87.65 µg/m3 N/A N/A 32.44 °C 47.87 % 999.81 mbar 3.22 m/s 83.76 Deg 0.32 µg/m3
2022-08-18 08:00 1.05 µg/m3 0.19 µg/m3 81.7 µg/m3 N/A N/A 30.11 °C 67.1 % 998.95 mbar 6.73 m/s 103.79 Deg 0.21 µg/m3
2022-08-18 07:00 2.06 µg/m3 0.2 µg/m3 83.08 µg/m3 N/A N/A 28.48 °C 84.96 % 999.22 mbar 5.01 m/s 128.11 Deg 0.2 µg/m3
2022-08-18 06:00 0.89 µg/m3 0.16 µg/m3 77.03 µg/m3 N/A N/A 28.1 °C 88.54 % 998.63 mbar 5.97 m/s 158.85 Deg 0.11 µg/m3
2022-08-18 05:00 1.4 µg/m3 0.41 µg/m3 85.23 µg/m3 N/A N/A 29.13 °C 69.12 % 998.12 mbar 6.07 m/s 67 Deg 0.1 µg/m3
2022-08-18 04:00 5.67 µg/m3 0.57 µg/m3 70.41 µg/m3 N/A N/A 29.19 °C 58.13 % 998.66 mbar 2.58 m/s 85.64 Deg 0.11 µg/m3
2022-08-18 03:00 8.62 µg/m3 0.61 µg/m3 70.25 µg/m3 N/A N/A 29.39 °C 59.56 % 998.95 mbar 1.81 m/s 75.73 Deg 0.09 µg/m3
2022-08-18 02:00 13.28 µg/m3 0.61 µg/m3 63.4 µg/m3 N/A N/A 29.2 °C 64.96 % 998.82 mbar 2.52 m/s 80.37 Deg 0.13 µg/m3

It is to be noted that the data is provisional and subject to quality assurance procedures. For validated data kindly refer your request to contact.air@era.org.mt